Time,TemperatureF,DewpointF,PressureIn,WindDirection,WindDirectionDegrees,WindSpeedMPH,WindSpeedGustMPH,Humidity,HourlyPrecipIn,Conditions,Clouds,dailyrainin,SoftwareType,DateUTC
2013-05-28 00:09:00,73.0,59.7,29.96,South,188,5.0,5.0,63,0.00,,,0.00,Wunderground v.1.15,2013-05-28 04:09:00,
2013-05-28 00:19:00,73.0,59.2,29.96,SSW,210,6.0,6.0,62,0.00,,,0.00,Wunderground v.1.15,2013-05-28 04:19:00,
2013-05-28 00:29:00,72.6,58.8,29.95,South,190,5.0,5.0,62,0.00,,,0.00,Wunderground v.1.15,2013-05-28 04:29:00,
2013-05-28 00:39:00,72.1,58.8,29.95,SSW,207,3.0,3.0,63,0.00,,,0.00,Wunderground v.1.15,2013-05-28 04:39:00,
2013-05-28 00:49:00,71.8,59.4,29.94,South,170,3.0,3.0,65,0.00,,,0.00,Wunderground v.1.15,2013-05-28 04:49:00,
2013-05-28 00:59:00,71.4,59.0,29.96,SW,214,4.0,4.0,65,0.00,,,0.00,Wunderground v.1.15,2013-05-28 04:59:00,
2013-05-28 01:09:00,71.2,59.3,29.97,SW,229,4.0,4.0,66,0.00,,,0.00,Wunderground v.1.15,2013-05-28 05:09:00,
2013-05-28 01:19:00,70.6,59.5,29.97,West,271,3.0,5.0,68,0.00,,,0.00,Wunderground v.1.15,2013-05-28 05:19:00,
2013-05-28 01:29:00,70.0,59.8,29.97,South,188,3.0,4.0,70,0.00,,,0.00,Wunderground v.1.15,2013-05-28 05:29:00,
2013-05-28 01:39:00,69.7,59.9,29.97,South,182,3.0,5.0,71,0.00,,,0.00,Wunderground v.1.15,2013-05-28 05:39:00,
2013-05-28 01:49:00,69.7,59.9,29.96,SW,235,4.0,4.0,71,0.00,,,0.00,Wunderground v.1.15,2013-05-28 05:49:00,
2013-05-28 01:59:00,69.7,60.3,29.96,SW,234,4.0,5.0,72,0.00,,,0.00,Wunderground v.1.15,2013-05-28 05:59:00,
2013-05-28 02:09:00,69.8,60.4,29.97,SSW,192,4.0,6.0,72,0.00,,,0.00,Wunderground v.1.15,2013-05-28 06:09:00,
2013-05-28 02:19:00,69.7,60.3,29.97,SSW,196,3.0,3.0,72,0.00,,,0.00,Wunderground v.1.15,2013-05-28 06:19:00,
2013-05-28 02:29:00,69.5,60.5,29.97,SW,224,3.0,3.0,73,0.00,,,0.00,Wunderground v.1.15,2013-05-28 06:29:00,
2013-05-28 02:39:00,69.2,60.2,29.98,SW,218,2.0,2.0,73,0.00,,,0.00,Wunderground v.1.15,2013-05-28 06:39:00,
2013-05-28 02:49:00,69.0,60.4,29.98,SSW,208,3.0,3.0,74,0.00,,,0.00,Wunderground v.1.15,2013-05-28 06:49:00,
2013-05-28 02:59:00,68.9,60.6,29.98,South,190,3.0,3.0,75,0.00,,,0.00,Wunderground v.1.15,2013-05-28 06:59:00,
2013-05-28 03:09:00,68.7,60.5,29.98,WSW,254,3.0,3.0,75,0.00,,,0.00,Wunderground v.1.15,2013-05-28 07:09:00,
2013-05-28 03:19:00,68.6,60.4,29.98,South,176,3.0,3.0,75,0.00,,,0.00,Wunderground v.1.15,2013-05-28 07:19:00,
2013-05-28 03:29:00,68.6,60.7,29.97,SSW,205,2.0,2.0,76,0.00,,,0.00,Wunderground v.1.15,2013-05-28 07:29:00,
2013-05-28 03:39:00,68.4,60.9,29.98,SSW,208,2.0,3.0,77,0.00,,,0.00,Wunderground v.1.15,2013-05-28 07:39:00,
2013-05-28 03:49:00,68.3,60.8,29.98,SSW,213,2.0,2.0,77,0.00,,,0.00,Wunderground v.1.15,2013-05-28 07:49:00,
2013-05-28 03:59:00,68.2,60.7,29.97,SSW,202,2.0,2.0,77,0.00,,,0.00,Wunderground v.1.15,2013-05-28 07:59:00,
2013-05-28 04:09:00,68.1,61.0,29.97,SSW,203,2.0,2.0,78,0.00,,,0.00,Wunderground v.1.15,2013-05-28 08:09:00,
2013-05-28 04:14:00,67.9,61.1,29.97,South,180,2.0,3.0,79,0.00,,,0.00,Wunderground v.1.15,2013-05-28 08:14:00,
2013-05-28 04:19:00,67.7,61.0,29.96,SSW,198,2.0,4.0,79,0.00,,,0.00,Wunderground v.1.15,2013-05-28 08:19:00,
2013-05-28 04:29:00,67.4,61.0,29.97,South,181,2.0,2.0,80,0.00,,,0.00,Wunderground v.1.15,2013-05-28 08:29:00,
2013-05-28 04:39:00,67.2,61.2,29.97,SSW,199,1.0,1.0,81,0.00,,,0.00,Wunderground v.1.15,2013-05-28 08:39:00,
2013-05-28 04:49:00,67.2,60.8,29.97,SSW,212,2.0,2.0,80,0.00,,,0.00,Wunderground v.1.15,2013-05-28 08:49:00,
2013-05-28 04:59:00,67.3,60.9,29.97,South,180,2.0,2.0,80,0.00,,,0.00,Wunderground v.1.15,2013-05-28 08:59:00,
2013-05-28 05:09:00,67.4,61.0,29.97,SW,220,1.0,1.0,80,0.00,,,0.00,Wunderground v.1.15,2013-05-28 09:09:00,
2013-05-28 05:19:00,67.3,60.9,29.98,SW,220,0.0,0.0,80,0.00,,,0.00,Wunderground v.1.15,2013-05-28 09:19:00,
2013-05-28 05:29:00,67.5,60.8,29.98,SSW,207,2.0,2.0,79,0.00,,,0.00,Wunderground v.1.15,2013-05-28 09:29:00,
2013-05-28 05:39:00,67.6,60.9,29.98,SW,225,1.0,3.0,79,0.00,,,0.00,Wunderground v.1.15,2013-05-28 09:39:00,
2013-05-28 05:49:00,67.9,60.8,29.99,SW,234,2.0,2.0,78,0.00,,,0.00,Wunderground v.1.15,2013-05-28 09:49:00,
2013-05-28 05:59:00,67.7,61.0,29.98,SW,233,0.0,0.0,79,0.00,,,0.00,Wunderground v.1.15,2013-05-28 09:59:00,
2013-05-28 06:09:00,67.1,60.7,29.98,SE,146,0.0,0.0,80,0.00,,,0.00,Wunderground v.1.15,2013-05-28 10:09:00,
2013-05-28 06:19:00,66.4,60.7,29.98,SE,146,0.0,0.0,82,0.00,,,0.00,Wunderground v.1.15,2013-05-28 10:19:00,
2013-05-28 06:29:00,65.8,60.5,29.98,SE,146,0.0,0.0,83,0.00,,,0.00,Wunderground v.1.15,2013-05-28 10:29:00,
2013-05-28 06:39:00,65.4,60.4,29.98,SE,146,0.0,0.0,84,0.00,,,0.00,Wunderground v.1.15,2013-05-28 10:39:00,
2013-05-28 06:49:00,65.2,60.2,29.99,SE,146,0.0,0.0,84,0.00,,,0.00,Wunderground v.1.15,2013-05-28 10:49:00,
2013-05-28 06:59:00,65.3,60.3,30.00,SSW,192,0.0,1.0,84,0.00,,,0.00,Wunderground v.1.15,2013-05-28 10:59:00,
2013-05-28 07:09:00,65.5,60.5,30.00,SSW,194,1.0,1.0,84,0.00,,,0.00,Wunderground v.1.15,2013-05-28 11:09:00,
2013-05-28 07:19:00,65.9,60.6,30.00,SSW,198,1.0,2.0,83,0.00,,,0.00,Wunderground v.1.15,2013-05-28 11:19:00,
2013-05-28 07:29:00,66.3,61.0,30.00,SSW,198,1.0,1.0,83,0.00,,,0.00,Wunderground v.1.15,2013-05-28 11:29:00,
2013-05-28 07:39:00,66.7,61.4,30.00,SSW,199,1.0,1.0,83,0.00,,,0.00,Wunderground v.1.15,2013-05-28 11:39:00,
2013-05-28 07:49:00,67.6,61.9,30.00,SSW,212,1.0,3.0,82,0.00,,,0.00,Wunderground v.1.15,2013-05-28 11:49:00,
2013-05-28 07:59:00,68.7,62.6,30.00,SW,225,2.0,2.0,81,0.00,,,0.00,Wunderground v.1.15,2013-05-28 11:59:00,
2013-05-28 08:09:00,69.8,62.6,30.00,SSW,207,4.0,4.0,78,0.00,,,0.00,Wunderground v.1.15,2013-05-28 12:09:00,
2013-05-28 08:19:00,70.6,63.0,30.00,SSE,163,3.0,6.0,77,0.00,,,0.00,Wunderground v.1.15,2013-05-28 12:19:00,
2013-05-28 08:29:00,71.2,63.2,30.00,South,173,4.0,4.0,76,0.00,,,0.00,Wunderground v.1.15,2013-05-28 12:29:00,
2013-05-28 08:39:00,71.7,63.7,30.00,SW,223,5.0,5.0,76,0.00,,,0.00,Wunderground v.1.15,2013-05-28 12:39:00,
2013-05-28 08:49:00,72.1,63.4,30.00,SW,217,4.0,4.0,74,0.00,,,0.00,Wunderground v.1.15,2013-05-28 12:49:00,
2013-05-28 08:59:00,72.5,64.1,30.00,SW,216,5.0,5.0,75,0.00,,,0.00,Wunderground v.1.15,2013-05-28 12:59:00,
2013-05-28 09:09:00,73.0,64.2,30.00,WSW,246,5.0,5.0,74,0.00,,,0.00,Wunderground v.1.15,2013-05-28 13:09:00,
2013-05-28 09:19:00,73.7,64.1,30.00,South,178,5.0,5.0,72,0.00,,,0.00,Wunderground v.1.15,2013-05-28 13:19:00,
2013-05-28 09:29:00,74.1,64.5,30.00,WSW,252,5.0,5.0,72,0.00,,,0.00,Wunderground v.1.15,2013-05-28 13:29:00,
2013-05-28 09:39:00,74.3,64.7,30.00,SE,132,5.0,5.0,72,0.00,,,0.00,Wunderground v.1.15,2013-05-28 13:39:00,
2013-05-28 09:49:00,74.5,65.3,30.00,South,190,5.0,5.0,73,0.00,,,0.00,Wunderground v.1.15,2013-05-28 13:49:00,
2013-05-28 09:59:00,74.6,64.6,30.00,SSW,197,6.0,7.0,71,0.00,,,0.00,Wunderground v.1.15,2013-05-28 13:59:00,
2013-05-28 10:09:00,74.9,65.3,30.00,WSW,248,5.0,5.0,72,0.00,,,0.00,Wunderground v.1.15,2013-05-28 14:09:00,
2013-05-28 10:19:00,75.1,65.1,30.00,WSW,252,5.0,8.0,71,0.00,,,0.00,Wunderground v.1.15,2013-05-28 14:19:00,
2013-05-28 10:29:00,75.1,64.6,30.00,SSE,152,6.0,10.0,70,0.00,,,0.00,Wunderground v.1.15,2013-05-28 14:29:00,
2013-05-28 10:39:00,75.1,64.6,30.00,WSW,256,6.0,6.0,70,0.00,,,0.00,Wunderground v.1.15,2013-05-28 14:39:00,
2013-05-28 10:49:00,75.2,65.1,30.00,SW,223,5.0,5.0,71,0.00,,,0.00,Wunderground v.1.15,2013-05-28 14:49:00,
2013-05-28 10:59:00,75.2,64.7,30.00,SW,231,6.0,8.0,70,0.00,,,0.00,Wunderground v.1.15,2013-05-28 14:59:00,
2013-05-28 11:09:00,75.2,65.1,30.00,SSW,206,6.0,6.0,71,0.00,,,0.00,Wunderground v.1.15,2013-05-28 15:09:00,
2013-05-28 11:19:00,75.6,65.5,30.00,WSW,238,5.0,8.0,71,0.00,,,0.00,Wunderground v.1.15,2013-05-28 15:19:00,
2013-05-28 11:29:00,76.0,65.9,30.00,SSW,204,4.0,7.0,71,0.00,,,0.00,Wunderground v.1.15,2013-05-28 15:29:00,
2013-05-28 11:39:00,76.0,65.9,30.00,SSE,156,7.0,7.0,71,0.00,,,0.00,Wunderground v.1.15,2013-05-28 15:39:00,
2013-05-28 11:49:00,76.1,65.2,30.00,SW,227,6.0,7.0,69,0.00,,,0.00,Wunderground v.1.15,2013-05-28 15:49:00,
2013-05-28 11:59:00,76.1,66.0,29.99,South,184,6.0,6.0,71,0.00,,,0.00,Wunderground v.1.15,2013-05-28 15:59:00,
2013-05-28 12:09:00,76.4,65.9,29.99,WSW,251,7.0,7.0,70,0.00,,,0.00,Wunderground v.1.15,2013-05-28 16:09:00,
2013-05-28 12:19:00,77.3,66.3,29.99,SW,221,7.0,7.0,69,0.00,,,0.00,Wunderground v.1.15,2013-05-28 16:19:00,
2013-05-28 12:29:00,77.6,66.6,29.99,SSW,208,8.0,9.0,69,0.00,,,0.00,Wunderground v.1.15,2013-05-28 16:29:00,
2013-05-28 12:39:00,77.6,66.6,29.99,SW,214,6.0,8.0,69,0.00,,,0.00,Wunderground v.1.15,2013-05-28 16:39:00,
2013-05-28 12:49:00,78.0,66.6,29.99,SW,224,7.0,7.0,68,0.00,,,0.00,Wunderground v.1.15,2013-05-28 16:49:00,
2013-05-28 12:54:00,77.8,66.4,29.99,WSW,254,7.0,7.0,68,0.00,,,0.00,Wunderground v.1.15,2013-05-28 16:54:00,
2013-05-28 13:09:00,77.6,67.0,29.98,South,171,6.0,6.0,70,0.00,,,0.00,Wunderground v.1.15,2013-05-28 17:09:00,
2013-05-28 13:19:00,77.6,67.0,29.98,South,191,4.0,5.0,70,0.00,,,0.00,Wunderground v.1.15,2013-05-28 17:19:00,
2013-05-28 13:29:00,78.0,67.4,29.98,SW,220,4.0,4.0,70,0.00,,,0.00,Wunderground v.1.15,2013-05-28 17:29:00,
2013-05-28 13:39:00,78.5,67.1,29.98,SSW,195,5.0,5.0,68,0.00,,,0.00,Wunderground v.1.15,2013-05-28 17:39:00,
2013-05-28 13:49:00,78.7,67.7,29.97,SW,223,5.0,5.0,69,0.00,,,0.00,Wunderground v.1.15,2013-05-28 17:49:00,
2013-05-28 13:59:00,79.0,67.1,29.97,SSW,204,5.0,8.0,67,0.00,,,0.00,Wunderground v.1.15,2013-05-28 17:59:00,
2013-05-28 14:09:00,78.8,66.9,29.97,SSW,202,6.0,6.0,67,0.00,,,0.00,Wunderground v.1.15,2013-05-28 18:09:00,
2013-05-28 14:19:00,79.4,67.5,29.96,SSW,200,7.0,7.0,67,0.00,,,0.00,Wunderground v.1.15,2013-05-28 18:19:00,
2013-05-28 14:29:00,79.7,67.3,29.96,South,178,6.0,6.0,66,0.00,,,0.00,Wunderground v.1.15,2013-05-28 18:29:00,
2013-05-28 14:34:00,80.0,67.6,29.96,West,272,6.0,9.0,66,0.00,,,0.00,Wunderground v.1.15,2013-05-28 18:34:00,
2013-05-28 14:49:00,80.4,66.2,29.96,SSW,209,7.0,7.0,62,0.00,,,0.00,Wunderground v.1.15,2013-05-28 18:49:00,
2013-05-28 14:59:00,80.3,67.0,29.96,SSW,194,6.0,6.0,64,0.00,,,0.00,Wunderground v.1.15,2013-05-28 18:59:00,
2013-05-28 15:09:00,80.4,66.6,29.95,SSW,205,6.0,8.0,63,0.00,,,0.00,Wunderground v.1.15,2013-05-28 19:09:00,
2013-05-28 15:19:00,80.3,66.1,29.94,SW,236,9.0,9.0,62,0.00,,,0.00,Wunderground v.1.15,2013-05-28 19:19:00,
2013-05-28 15:29:00,81.0,66.3,29.94,SSW,199,6.0,7.0,61,0.00,,,0.00,Wunderground v.1.15,2013-05-28 19:29:00,
2013-05-28 15:39:00,81.2,66.5,29.93,SW,232,6.0,6.0,61,0.00,,,0.00,Wunderground v.1.15,2013-05-28 19:39:00,
2013-05-28 15:49:00,81.2,64.5,29.93,WSW,240,6.0,6.0,57,0.00,,,0.00,Wunderground v.1.15,2013-05-28 19:49:00,
2013-05-28 15:59:00,80.3,64.7,29.92,SSE,155,8.0,8.0,59,0.00,,,0.00,Wunderground v.1.15,2013-05-28 19:59:00,
2013-05-28 16:09:00,80.6,63.5,29.91,SW,231,8.0,13.0,56,0.00,,,0.00,Wunderground v.1.15,2013-05-28 20:09:00,
2013-05-28 16:19:00,80.7,64.1,29.93,SW,231,7.0,7.0,57,0.00,,,0.00,Wunderground v.1.15,2013-05-28 20:19:00,
2013-05-28 16:29:00,80.6,64.0,29.94,SE,141,5.0,5.0,57,0.00,,,0.00,Wunderground v.1.15,2013-05-28 20:29:00,
2013-05-28 16:39:00,80.6,64.0,29.94,West,267,5.0,6.0,57,0.00,,,0.00,Wunderground v.1.15,2013-05-28 20:39:00,
2013-05-28 16:49:00,80.1,63.0,29.93,SSW,210,7.0,7.0,56,0.00,,,0.00,Wunderground v.1.15,2013-05-28 20:49:00,
2013-05-28 16:59:00,80.2,63.1,29.93,WSW,238,5.0,5.0,56,0.00,,,0.00,Wunderground v.1.15,2013-05-28 20:59:00,
2013-05-28 17:09:00,80.3,63.2,29.93,SW,229,6.0,6.0,56,0.00,,,0.00,Wunderground v.1.15,2013-05-28 21:09:00,
2013-05-28 17:19:00,80.3,62.7,29.93,SSW,204,6.0,6.0,55,0.00,,,0.00,Wunderground v.1.15,2013-05-28 21:19:00,
2013-05-28 17:29:00,80.3,62.7,29.93,SW,228,6.0,6.0,55,0.00,,,0.00,Wunderground v.1.15,2013-05-28 21:29:00,
2013-05-28 17:39:00,80.4,63.3,29.92,SSW,203,4.0,4.0,56,0.00,,,0.00,Wunderground v.1.15,2013-05-28 21:39:00,
2013-05-28 17:49:00,80.6,62.9,29.92,SSW,197,4.0,6.0,55,0.00,,,0.00,Wunderground v.1.15,2013-05-28 21:49:00,
2013-05-28 17:59:00,81.0,62.8,29.92,SSW,209,4.0,4.0,54,0.00,,,0.00,Wunderground v.1.15,2013-05-28 21:59:00,
2013-05-28 18:09:00,81.2,61.9,29.92,SW,221,4.0,6.0,52,0.00,,,0.00,Wunderground v.1.15,2013-05-28 22:09:00,
2013-05-28 18:19:00,81.6,63.3,29.92,South,181,4.0,4.0,54,0.00,,,0.00,Wunderground v.1.15,2013-05-28 22:19:00,
2013-05-28 18:29:00,81.9,63.6,29.92,SW,217,4.0,4.0,54,0.00,,,0.00,Wunderground v.1.15,2013-05-28 22:29:00,
2013-05-28 18:39:00,81.8,63.0,29.92,West,272,4.0,4.0,53,0.00,,,0.00,Wunderground v.1.15,2013-05-28 22:39:00,
2013-05-28 18:49:00,81.3,63.1,29.93,WSW,241,4.0,4.0,54,0.00,,,0.00,Wunderground v.1.15,2013-05-28 22:49:00,
2013-05-28 18:59:00,80.9,63.2,29.93,South,186,4.0,7.0,55,0.00,,,0.00,Wunderground v.1.15,2013-05-28 22:59:00,
2013-05-28 19:09:00,80.3,62.7,29.92,SW,216,4.0,4.0,55,0.00,,,0.00,Wunderground v.1.15,2013-05-28 23:09:00,
2013-05-28 19:19:00,79.8,62.7,29.93,South,184,3.0,4.0,56,0.00,,,0.00,Wunderground v.1.15,2013-05-28 23:19:00,
2013-05-28 19:29:00,79.4,62.3,29.93,SW,214,3.0,6.0,56,0.00,,,0.00,Wunderground v.1.15,2013-05-28 23:29:00,
2013-05-28 19:39:00,79.2,62.7,29.93,SSW,211,3.0,3.0,57,0.00,,,0.00,Wunderground v.1.15,2013-05-28 23:39:00,
2013-05-28 19:49:00,78.9,62.9,29.93,SSW,205,2.0,2.0,58,0.00,,,0.00,Wunderground v.1.15,2013-05-28 23:49:00,
2013-05-28 19:59:00,78.6,62.6,29.93,SW,235,3.0,3.0,58,0.00,,,0.00,Wunderground v.1.15,2013-05-28 23:59:00,
2013-05-28 20:09:00,78.3,62.8,29.94,SSW,204,2.0,3.0,59,0.00,,,0.00,Wunderground v.1.15,2013-05-29 00:09:00,
2013-05-28 20:19:00,77.9,62.9,29.93,SW,217,2.0,2.0,60,0.00,,,0.00,Wunderground v.1.15,2013-05-29 00:19:00,
2013-05-28 20:29:00,77.7,62.7,29.94,WSW,250,3.0,6.0,60,0.00,,,0.00,Wunderground v.1.15,2013-05-29 00:29:00,
2013-05-28 20:39:00,77.5,62.0,29.94,South,182,3.0,3.0,59,0.00,,,0.00,Wunderground v.1.15,2013-05-29 00:39:00,
2013-05-28 20:49:00,77.2,62.2,29.94,South,183,2.0,4.0,60,0.00,,,0.00,Wunderground v.1.15,2013-05-29 00:49:00,
2013-05-28 20:59:00,76.8,62.3,29.94,South,177,2.0,3.0,61,0.00,,,0.00,Wunderground v.1.15,2013-05-29 00:59:00,
2013-05-28 21:09:00,76.1,62.1,29.94,WSW,254,1.0,1.0,62,0.00,,,0.00,Wunderground v.1.15,2013-05-29 01:09:00,
2013-05-28 21:19:00,75.8,61.8,29.94,SSW,213,1.0,1.0,62,0.00,,,0.00,Wunderground v.1.15,2013-05-29 01:19:00,
2013-05-28 21:29:00,75.1,61.6,29.94,SSW,198,1.0,1.0,63,0.00,,,0.00,Wunderground v.1.15,2013-05-29 01:29:00,
2013-05-28 21:39:00,74.5,61.5,29.94,SSW,194,1.0,3.0,64,0.00,,,0.00,Wunderground v.1.15,2013-05-29 01:39:00,
2013-05-28 21:49:00,74.0,61.5,29.94,SSE,149,1.0,1.0,65,0.00,,,0.00,Wunderground v.1.15,2013-05-29 01:49:00,
2013-05-28 21:59:00,73.6,61.5,29.94,ESE,122,1.0,1.0,66,0.00,,,0.00,Wunderground v.1.15,2013-05-29 01:59:00,
2013-05-28 22:09:00,73.1,61.5,29.95,ESE,122,0.0,0.0,67,0.00,,,0.00,Wunderground v.1.15,2013-05-29 02:09:00,
2013-05-28 22:20:00,72.6,61.0,29.96,ESE,122,0.0,0.0,67,0.00,,,0.00,Wunderground v.1.15,2013-05-29 02:20:00,
2013-05-28 22:30:00,72.2,61.0,29.95,ESE,122,0.0,0.0,68,0.00,,,0.00,Wunderground v.1.15,2013-05-29 02:30:00,
2013-05-28 22:40:00,71.6,60.9,29.95,ESE,122,0.0,0.0,69,0.00,,,0.00,Wunderground v.1.15,2013-05-29 02:40:00,
2013-05-28 22:50:00,71.2,60.9,29.96,ESE,122,0.0,0.0,70,0.00,,,0.00,Wunderground v.1.15,2013-05-29 02:50:00,
2013-05-28 23:00:00,70.6,60.7,29.95,ESE,122,0.0,0.0,71,0.00,,,0.00,Wunderground v.1.15,2013-05-29 03:00:00,
2013-05-28 23:10:00,70.1,60.7,29.95,ESE,122,0.0,0.0,72,0.00,,,0.00,Wunderground v.1.15,2013-05-29 03:10:00,
2013-05-28 23:20:00,69.9,60.8,29.95,ESE,123,1.0,1.0,73,0.00,,,0.00,Wunderground v.1.15,2013-05-29 03:20:00,
2013-05-28 23:30:00,69.7,60.7,29.96,ESE,123,0.0,0.0,73,0.00,,,0.00,Wunderground v.1.15,2013-05-29 03:30:00,
2013-05-28 23:40:00,69.8,60.8,29.97,SW,229,1.0,1.0,73,0.00,,,0.00,Wunderground v.1.15,2013-05-29 03:40:00,
2013-05-28 23:50:00,69.6,60.9,29.97,SW,229,0.0,0.0,74,0.00,,,0.00,Wunderground v.1.15,2013-05-29 03:50:00,